sensor_id;sensor_type;location;lat;lon;timestamp;P1;durP1;ratioP1;P2;durP2;ratioP2
12373;SDS011;6251;51.762;8.660;2023-12-20T00:08:53;35.22;;;11.90;;
12373;SDS011;6251;51.762;8.660;2023-12-20T02:00:37;17.12;;;7.07;;
12373;SDS011;6251;51.762;8.660;2023-12-20T02:10:38;27.02;;;7.50;;
12373;SDS011;6251;51.762;8.660;2023-12-20T03:52:14;26.73;;;10.15;;
12373;SDS011;6251;51.762;8.660;2023-12-20T05:03:16;24.02;;;7.37;;
12373;SDS011;6251;51.762;8.660;2023-12-20T05:13:17;25.25;;;8.93;;
12373;SDS011;6251;51.762;8.660;2023-12-20T05:23:17;28.35;;;8.82;;
12373;SDS011;6251;51.762;8.660;2023-12-20T05:33:18;32.20;;;9.90;;
12373;SDS011;6251;51.762;8.660;2023-12-20T05:43:19;20.15;;;8.95;;
12373;SDS011;6251;51.762;8.660;2023-12-20T05:53:19;26.73;;;10.25;;
12373;SDS011;6251;51.762;8.660;2023-12-20T06:03:20;25.45;;;11.50;;
12373;SDS011;6251;51.762;8.660;2023-12-20T06:13:20;33.20;;;12.55;;
12373;SDS011;6251;51.762;8.660;2023-12-20T06:23:21;40.58;;;13.38;;
12373;SDS011;6251;51.762;8.660;2023-12-20T06:33:22;52.38;;;15.35;;
12373;SDS011;6251;51.762;8.660;2023-12-20T06:43:23;38.33;;;14.82;;
12373;SDS011;6251;51.762;8.660;2023-12-20T06:53:23;40.17;;;16.60;;
12373;SDS011;6251;51.762;8.660;2023-12-20T07:03:24;41.88;;;15.90;;
12373;SDS011;6251;51.762;8.660;2023-12-20T07:13:24;39.53;;;15.57;;
12373;SDS011;6251;51.762;8.660;2023-12-20T07:23:25;45.63;;;16.00;;
12373;SDS011;6251;51.762;8.660;2023-12-20T07:33:26;41.88;;;14.77;;
12373;SDS011;6251;51.762;8.660;2023-12-20T07:43:27;40.55;;;15.43;;
12373;SDS011;6251;51.762;8.660;2023-12-20T07:53:27;34.95;;;13.98;;
12373;SDS011;6251;51.762;8.660;2023-12-20T08:03:28;39.08;;;14.30;;
12373;SDS011;6251;51.762;8.660;2023-12-20T08:13:28;38.53;;;14.30;;
12373;SDS011;6251;51.762;8.660;2023-12-20T08:23:29;33.83;;;13.23;;
12373;SDS011;6251;51.762;8.660;2023-12-20T08:33:29;33.58;;;13.62;;
12373;SDS011;6251;51.762;8.660;2023-12-20T08:43:31;27.08;;;13.62;;
12373;SDS011;6251;51.762;8.660;2023-12-20T08:53:32;33.33;;;14.10;;
12373;SDS011;6251;51.762;8.660;2023-12-20T09:03:33;32.83;;;13.15;;
12373;SDS011;6251;51.762;8.660;2023-12-20T09:13:34;29.02;;;13.25;;
12373;SDS011;6251;51.762;8.660;2023-12-20T09:23:34;30.15;;;12.93;;
12373;SDS011;6251;51.762;8.660;2023-12-20T09:33:36;20.45;;;12.50;;
12373;SDS011;6251;51.762;8.660;2023-12-20T09:43:37;27.85;;;12.82;;
12373;SDS011;6251;51.762;8.660;2023-12-20T09:53:38;28.25;;;12.85;;
12373;SDS011;6251;51.762;8.660;2023-12-20T10:03:41;24.83;;;12.20;;
12373;SDS011;6251;51.762;8.660;2023-12-20T10:13:42;24.12;;;13.13;;
12373;SDS011;6251;51.762;8.660;2023-12-20T10:23:43;21.33;;;12.68;;
12373;SDS011;6251;51.762;8.660;2023-12-20T10:33:44;32.88;;;14.20;;
12373;SDS011;6251;51.762;8.660;2023-12-20T10:43:44;27.40;;;12.65;;
12373;SDS011;6251;51.762;8.660;2023-12-20T10:53:47;31.55;;;12.70;;
12373;SDS011;6251;51.762;8.660;2023-12-20T11:03:49;27.85;;;13.35;;
12373;SDS011;6251;51.762;8.660;2023-12-20T11:13:58;25.73;;;13.27;;
12373;SDS011;6251;51.762;8.660;2023-12-20T11:24:04;28.10;;;13.13;;
12373;SDS011;6251;51.762;8.660;2023-12-20T11:34:15;28.77;;;13.05;;
12373;SDS011;6251;51.762;8.660;2023-12-20T11:44:17;32.13;;;14.32;;
12373;SDS011;6251;51.762;8.660;2023-12-20T11:54:18;28.20;;;14.60;;
12373;SDS011;6251;51.762;8.660;2023-12-20T12:04:19;25.77;;;14.23;;
12373;SDS011;6251;51.762;8.660;2023-12-20T12:14:19;24.02;;;14.57;;
12373;SDS011;6251;51.762;8.660;2023-12-20T12:24:20;22.67;;;14.00;;
12373;SDS011;6251;51.762;8.660;2023-12-20T12:34:22;21.85;;;13.98;;
12373;SDS011;6251;51.762;8.660;2023-12-20T12:44:22;25.37;;;14.25;;
12373;SDS011;6251;51.762;8.660;2023-12-20T12:54:25;27.02;;;13.98;;
12373;SDS011;6251;51.762;8.660;2023-12-20T13:04:25;22.50;;;12.13;;
12373;SDS011;6251;51.762;8.660;2023-12-20T13:14:26;16.65;;;10.82;;
12373;SDS011;6251;51.762;8.660;2023-12-20T13:24:26;23.42;;;10.45;;
12373;SDS011;6251;51.762;8.660;2023-12-20T13:34:27;11.48;;;8.45;;
12373;SDS011;6251;51.762;8.660;2023-12-20T13:44:27;16.87;;;9.07;;
12373;SDS011;6251;51.762;8.660;2023-12-20T13:54:28;21.55;;;10.27;;
12373;SDS011;6251;51.762;8.660;2023-12-20T14:04:29;16.00;;;10.00;;
12373;SDS011;6251;51.762;8.660;2023-12-20T14:14:31;16.85;;;11.15;;
12373;SDS011;6251;51.762;8.660;2023-12-20T14:24:37;18.00;;;10.90;;
12373;SDS011;6251;51.762;8.660;2023-12-20T14:34:38;20.65;;;11.82;;
12373;SDS011;6251;51.762;8.660;2023-12-20T14:44:39;19.87;;;11.70;;
12373;SDS011;6251;51.762;8.660;2023-12-20T14:54:40;25.52;;;16.10;;
12373;SDS011;6251;51.762;8.660;2023-12-20T15:04:43;19.87;;;12.57;;
12373;SDS011;6251;51.762;8.660;2023-12-20T15:14:44;18.00;;;11.30;;
12373;SDS011;6251;51.762;8.660;2023-12-20T15:24:44;25.00;;;13.05;;
12373;SDS011;6251;51.762;8.660;2023-12-20T15:34:46;23.20;;;12.88;;
12373;SDS011;6251;51.762;8.660;2023-12-20T15:44:47;19.48;;;12.85;;
12373;SDS011;6251;51.762;8.660;2023-12-20T15:54:47;21.85;;;12.52;;
12373;SDS011;6251;51.762;8.660;2023-12-20T16:04:48;23.92;;;13.30;;
12373;SDS011;6251;51.762;8.660;2023-12-20T16:14:48;22.17;;;14.32;;
12373;SDS011;6251;51.762;8.660;2023-12-20T16:24:49;24.17;;;13.77;;
12373;SDS011;6251;51.762;8.660;2023-12-20T16:34:50;19.65;;;13.25;;
12373;SDS011;6251;51.762;8.660;2023-12-20T16:44:51;26.65;;;15.60;;
12373;SDS011;6251;51.762;8.660;2023-12-20T16:54:51;30.70;;;16.10;;
12373;SDS011;6251;51.762;8.660;2023-12-20T17:04:52;29.87;;;16.87;;
12373;SDS011;6251;51.762;8.660;2023-12-20T17:14:53;30.90;;;17.08;;
12373;SDS011;6251;51.762;8.660;2023-12-20T17:24:53;30.52;;;17.15;;
12373;SDS011;6251;51.762;8.660;2023-12-20T17:34:54;31.90;;;17.73;;
12373;SDS011;6251;51.762;8.660;2023-12-20T17:44:55;34.58;;;17.58;;
12373;SDS011;6251;51.762;8.660;2023-12-20T17:54:55;36.50;;;17.48;;
12373;SDS011;6251;51.762;8.660;2023-12-20T18:04:56;37.63;;;17.80;;
12373;SDS011;6251;51.762;8.660;2023-12-20T18:14:56;30.40;;;16.77;;
12373;SDS011;6251;51.762;8.660;2023-12-20T18:24:58;37.17;;;18.40;;
12373;SDS011;6251;51.762;8.660;2023-12-20T18:34:59;27.73;;;15.70;;
12373;SDS011;6251;51.762;8.660;2023-12-20T18:45:00;28.08;;;14.68;;
12373;SDS011;6251;51.762;8.660;2023-12-20T18:55:03;27.98;;;13.93;;
12373;SDS011;6251;51.762;8.660;2023-12-20T19:05:04;27.75;;;14.43;;
12373;SDS011;6251;51.762;8.660;2023-12-20T19:15:05;26.75;;;13.02;;
12373;SDS011;6251;51.762;8.660;2023-12-20T19:25:06;25.95;;;13.30;;
12373;SDS011;6251;51.762;8.660;2023-12-20T19:35:09;23.42;;;11.43;;
12373;SDS011;6251;51.762;8.660;2023-12-20T19:45:09;29.92;;;11.07;;
12373;SDS011;6251;51.762;8.660;2023-12-20T19:55:11;21.00;;;10.77;;
12373;SDS011;6251;51.762;8.660;2023-12-20T20:05:12;25.05;;;10.68;;
12373;SDS011;6251;51.762;8.660;2023-12-20T20:15:12;23.20;;;11.93;;
12373;SDS011;6251;51.762;8.660;2023-12-20T20:25:13;25.85;;;11.50;;
12373;SDS011;6251;51.762;8.660;2023-12-20T20:35:14;29.65;;;11.43;;
12373;SDS011;6251;51.762;8.660;2023-12-20T20:45:15;22.00;;;11.45;;
12373;SDS011;6251;51.762;8.660;2023-12-20T20:55:17;22.52;;;11.18;;
12373;SDS011;6251;51.762;8.660;2023-12-20T21:05:17;19.87;;;10.10;;
12373;SDS011;6251;51.762;8.660;2023-12-20T21:15:18;14.38;;;9.15;;
12373;SDS011;6251;51.762;8.660;2023-12-20T21:25:19;12.60;;;8.50;;
12373;SDS011;6251;51.762;8.660;2023-12-20T21:35:20;23.60;;;9.25;;
12373;SDS011;6251;51.762;8.660;2023-12-20T21:45:21;15.15;;;7.68;;
12373;SDS011;6251;51.762;8.660;2023-12-20T21:55:21;14.38;;;7.68;;
